Time;durP1;ratioP1;P1;durP2;ratioP2;P2;SDS_P1;SDS_P2;PMS_P1;PMS_P2;Temp;Humidity;BMP_temperature;BMP_pressure;BME280_temperature;BME280_humidity;BME280_pressure;Samples;Min_cycle;Max_cycle;Signal;HPM_P1;HPM_P2
2021/03/19 00:01:48;;;;;;;21.37;19.67;;;4.30;99.90;;;;;;5131809;28;20975;-73
2021/03/19 00:04:15;;;;;;;20.17;18.20;;;4.30;99.90;;;;;;5132053;27;20447;-74
2021/03/19 00:06:41;;;;;;;20.87;19.23;;;4.20;99.90;;;;;;5132349;27;20930;-75
2021/03/19 00:09:09;;;;;;;18.97;17.47;;;4.10;99.90;;;;;;5131905;27;20491;-75
2021/03/19 00:11:36;;;;;;;18.93;17.57;;;4.00;99.90;;;;;;5131952;27;20930;-75
2021/03/19 00:14:03;;;;;;;19.30;17.70;;;3.90;99.90;;;;;;5131720;27;20448;-75
2021/03/19 00:16:30;;;;;;;18.70;17.40;;;3.90;99.90;;;;;;5132148;27;20449;-75
2021/03/19 00:18:57;;;;;;;18.50;17.20;;;3.80;99.90;;;;;;5131817;27;20529;-75
2021/03/19 00:21:23;;;;;;;20.33;18.83;;;3.70;99.90;;;;;;5132058;27;20841;-75
2021/03/19 00:23:49;;;;;;;19.33;18.00;;;3.80;99.90;;;;;;5131763;27;20444;-74
2021/03/19 00:26:16;;;;;;;20.67;19.23;;;3.70;99.90;;;;;;5131753;28;20452;-74
2021/03/19 00:28:42;;;;;;;19.23;18.00;;;3.70;99.90;;;;;;5131506;27;20484;-75
2021/03/19 00:31:09;;;;;;;20.30;18.87;;;3.70;99.90;;;;;;5131726;27;20456;-75
2021/03/19 00:33:35;;;;;;;19.80;18.60;;;3.70;99.90;;;;;;5131901;28;20448;-75
2021/03/19 00:36:03;;;;;;;20.93;19.63;;;3.70;99.90;;;;;;5131556;27;20471;-77
2021/03/19 00:38:29;;;;;;;22.93;21.27;;;3.70;99.90;;;;;;5131893;27;20445;-78
2021/03/19 00:40:55;;;;;;;21.70;20.13;;;3.70;99.90;;;;;;5131512;28;20457;-77
2021/03/19 00:43:21;;;;;;;22.23;20.60;;;3.70;99.90;;;;;;5134419;27;20452;-77
2021/03/19 00:45:48;;;;;;;20.30;19.00;;;3.60;99.90;;;;;;5135613;27;20861;-77
2021/03/19 00:48:14;;;;;;;22.03;20.60;;;3.70;99.90;;;;;;5135637;27;20531;-76
2021/03/19 00:50:42;;;;;;;22.93;21.53;;;3.70;99.90;;;;;;5135264;27;20445;-76
2021/03/19 00:53:10;;;;;;;24.20;22.40;;;3.70;99.90;;;;;;5135401;27;20498;-75
2021/03/19 00:55:36;;;;;;;23.47;21.77;;;3.70;99.90;;;;;;5135242;27;20444;-76
2021/03/19 00:58:03;;;;;;;23.80;22.07;;;3.60;99.90;;;;;;5135226;27;20447;-76
2021/03/19 01:00:32;;;;;;;23.87;21.93;;;3.60;99.90;;;;;;5135366;27;20452;-75
2021/03/19 01:02:58;;;;;;;23.77;21.97;;;3.60;99.90;;;;;;5135455;27;20448;-74
2021/03/19 01:05:26;;;;;;;25.53;23.90;;;3.40;99.90;;;;;;5134818;27;20452;-74
2021/03/19 01:07:53;;;;;;;25.47;23.77;;;3.20;99.90;;;;;;5135012;27;20476;-75
2021/03/19 01:10:26;;;;;;;25.80;24.10;;;3.10;99.90;;;;;;5135089;27;20508;-75
2021/03/19 01:12:52;;;;;;;26.63;24.53;;;3.20;99.90;;;;;;5135093;27;20444;-74
2021/03/19 01:15:19;;;;;;;26.73;24.93;;;3.30;99.90;;;;;;5135104;27;20444;-74
2021/03/19 01:17:45;;;;;;;28.57;26.57;;;3.30;99.90;;;;;;5134542;27;20980;-73
2021/03/19 01:20:13;;;;;;;26.93;25.10;;;3.20;99.90;;;;;;5135181;27;20461;-74
2021/03/19 01:22:40;;;;;;;27.50;25.70;;;3.30;99.90;;;;;;5134875;27;20551;-73
2021/03/19 01:25:08;;;;;;;27.93;25.93;;;3.20;99.90;;;;;;5134846;27;20681;-73
2021/03/19 01:27:35;;;;;;;26.57;24.80;;;3.20;99.90;;;;;;5134832;27;20675;-73
2021/03/19 01:30:01;;;;;;;29.83;27.60;;;3.20;99.90;;;;;;5134713;27;20457;-74
2021/03/19 01:32:28;;;;;;;29.80;27.27;;;3.00;99.90;;;;;;5134799;27;20447;-74
2021/03/19 01:34:54;;;;;;;29.13;26.97;;;3.00;99.90;;;;;;5134460;27;20438;-74
2021/03/19 01:37:20;;;;;;;30.10;28.00;;;2.90;99.90;;;;;;5134675;27;20488;-74
2021/03/19 01:39:46;;;;;;;30.50;28.40;;;2.90;99.90;;;;;;5134558;27;21024;-74
2021/03/19 01:42:12;;;;;;;31.90;29.60;;;2.90;99.90;;;;;;5134598;27;20443;-74
2021/03/19 01:44:54;;;;;;;30.70;28.20;;;2.90;99.90;;;;;;5134620;27;20680;-75
2021/03/19 01:47:58;;;;;;;31.43;28.63;;;2.80;99.90;;;;;;5134149;27;20845;-74
2021/03/19 01:51:02;;;;;;;31.83;29.47;;;2.60;99.90;;;;;;5134252;27;20454;-73
2021/03/19 01:54:05;;;;;;;32.30;29.70;;;2.50;99.90;;;;;;5112930;28;20453;-75
2021/03/19 01:57:08;;;;;;;32.70;30.23;;;2.50;99.90;;;;;;5113562;28;20535;-76
2021/03/19 02:00:12;;;;;;;32.50;30.10;;;2.60;99.90;;;;;;5113631;28;20469;-76
2021/03/19 02:03:15;;;;;;;34.23;31.67;;;2.50;99.90;;;;;;5113428;28;20512;-75
2021/03/19 02:06:19;;;;;;;32.17;29.60;;;2.50;99.90;;;;;;5113535;28;20498;-77
2021/03/19 02:09:22;;;;;;;31.70;29.10;;;2.50;99.90;;;;;;5113221;28;20494;-76
2021/03/19 02:12:26;;;;;;;33.07;30.40;;;2.50;99.90;;;;;;5113306;28;20449;-76
2021/03/19 02:15:29;;;;;;;35.37;32.47;;;2.50;99.90;;;;;;5113181;28;20448;-76
2021/03/19 02:18:33;;;;;;;32.60;29.90;;;2.50;99.90;;;;;;5112816;28;20484;-75
2021/03/19 02:21:36;;;;;;;34.03;31.13;;;2.50;99.90;;;;;;5113344;28;20499;-75
2021/03/19 02:24:39;;;;;;;32.00;29.60;;;2.50;99.90;;;;;;5113477;28;20452;-75
2021/03/19 02:27:43;;;;;;;31.30;29.10;;;2.50;99.90;;;;;;5112766;28;20456;-75
2021/03/19 02:30:46;;;;;;;32.67;29.87;;;2.40;99.90;;;;;;5112783;28;20786;-75
2021/03/19 02:33:13;;;;;;;35.57;32.80;;;2.40;99.90;;;;;;5099278;28;20456;-75
2021/03/19 02:35:53;;;;;;;36.57;33.57;;;2.50;99.90;;;;;;5112908;28;20459;-75
2021/03/19 02:38:19;;;;;;;35.00;32.20;;;2.50;99.90;;;;;;5112620;28;20511;-75
2021/03/19 02:40:45;;;;;;;36.53;33.43;;;2.40;99.90;;;;;;5112714;28;20736;-76
2021/03/19 02:43:12;;;;;;;35.30;32.73;;;2.40;99.90;;;;;;5112858;28;20466;-75
2021/03/19 02:45:38;;;;;;;36.43;33.13;;;2.50;99.90;;;;;;5112423;28;20453;-75
2021/03/19 02:48:05;;;;;;;36.67;33.53;;;2.60;99.90;;;;;;5112710;28;20940;-75
2021/03/19 02:50:32;;;;;;;37.37;34.33;;;2.60;99.90;;;;;;5112912;27;20446;-74
2021/03/19 02:52:58;;;;;;;35.30;31.90;;;2.60;99.90;;;;;;5133407;27;20803;-75
2021/03/19 02:55:24;;;;;;;34.67;32.10;;;2.60;99.90;;;;;;5132903;27;20472;-76
2021/03/19 02:57:50;;;;;;;36.03;33.13;;;2.60;99.90;;;;;;5132744;27;20449;-75
2021/03/19 03:00:21;;;;;;;33.30;30.50;;;2.60;99.90;;;;;;5132908;27;20445;-74
2021/03/19 03:02:47;;;;;;;34.60;31.73;;;2.60;99.90;;;;;;5132758;27;21056;-75
2021/03/19 03:05:14;;;;;;;30.50;27.93;;;2.60;99.90;;;;;;5132550;27;20489;-75
2021/03/19 03:07:41;;;;;;;30.00;27.60;;;2.50;99.90;;;;;;5132770;27;20521;-76
2021/03/19 03:10:10;;;;;;;30.50;28.17;;;2.50;99.90;;;;;;5132567;27;20448;-76
2021/03/19 03:12:36;;;;;;;27.30;25.40;;;2.50;99.90;;;;;;5132592;27;20864;-75
2021/03/19 03:15:04;;;;;;;30.30;27.90;;;2.50;99.90;;;;;;5132527;27;20445;-74
2021/03/19 03:17:31;;;;;;;28.63;26.53;;;2.50;99.90;;;;;;5132499;27;20474;-74
2021/03/19 03:19:57;;;;;;;30.17;27.37;;;2.40;99.90;;;;;;5132619;27;20453;-76
2021/03/19 03:22:23;;;;;;;28.70;26.17;;;2.50;99.90;;;;;;5132581;27;20465;-75
2021/03/19 03:24:50;;;;;;;31.30;28.47;;;2.50;99.90;;;;;;5132361;27;20467;-76
2021/03/19 03:27:16;;;;;;;28.97;26.57;;;2.50;99.90;;;;;;5132330;27;20501;-76
2021/03/19 03:29:42;;;;;;;29.83;27.33;;;2.50;99.90;;;;;;5132611;27;20447;-76
2021/03/19 03:32:09;;;;;;;31.00;28.53;;;2.50;99.90;;;;;;5132229;27;20442;-76
2021/03/19 03:34:35;;;;;;;33.90;30.83;;;2.60;99.90;;;;;;5132003;27;20933;-76
2021/03/19 03:37:02;;;;;;;35.63;32.23;;;2.60;99.90;;;;;;5132182;27;20471;-75
2021/03/19 03:39:32;;;;;;;29.77;27.27;;;2.60;99.90;;;;;;5132161;27;20438;-76
2021/03/19 03:42:03;;;;;;;33.77;30.83;;;2.70;99.90;;;;;;5132226;27;20452;-75
2021/03/19 03:44:29;;;;;;;33.60;30.63;;;2.70;99.90;;;;;;5132267;27;20436;-76
2021/03/19 03:46:55;;;;;;;34.20;31.00;;;2.70;99.90;;;;;;5132196;27;20448;-75
2021/03/19 03:49:22;;;;;;;36.00;32.60;;;2.70;99.90;;;;;;5132147;27;20491;-76
2021/03/19 03:51:49;;;;;;;34.60;31.57;;;2.70;99.90;;;;;;5131569;27;20505;-76
2021/03/19 03:54:15;;;;;;;36.57;33.43;;;2.80;99.90;;;;;;5132072;27;20459;-76
2021/03/19 03:56:42;;;;;;;34.93;31.90;;;2.80;99.90;;;;;;5132164;27;20449;-77
2021/03/19 03:59:09;;;;;;;39.90;36.37;;;2.80;99.90;;;;;;5131863;27;20815;-77
2021/03/19 04:01:38;;;;;;;35.60;32.53;;;2.80;99.90;;;;;;5131920;27;20645;-76
2021/03/19 04:04:05;;;;;;;35.17;31.90;;;2.90;99.90;;;;;;5131819;28;20447;-75
2021/03/19 04:06:31;;;;;;;34.57;31.57;;;2.90;99.90;;;;;;5131893;28;20444;-76
2021/03/19 04:08:57;;;;;;;34.40;31.50;;;3.00;99.90;;;;;;5131951;28;20486;-75
2021/03/19 04:11:24;;;;;;;33.10;30.50;;;3.00;99.90;;;;;;5131910;28;20455;-76
2021/03/19 04:13:52;;;;;;;32.93;30.13;;;3.00;99.90;;;;;;5131552;28;20449;-77
2021/03/19 04:16:19;;;;;;;31.33;28.67;;;3.00;99.90;;;;;;5131599;27;20452;-77
2021/03/19 04:18:46;;;;;;;32.37;29.70;;;3.00;99.90;;;;;;5135491;27;20840;-76
2021/03/19 04:21:13;;;;;;;29.67;27.43;;;2.90;99.90;;;;;;5135926;27;20443;-76
2021/03/19 04:23:41;;;;;;;30.80;28.10;;;2.90;99.90;;;;;;5135868;27;20461;-76
2021/03/19 04:26:09;;;;;;;32.83;29.70;;;2.90;99.90;;;;;;5135891;27;20451;-76
2021/03/19 04:28:38;;;;;;;30.63;28.33;;;2.80;99.90;;;;;;5135673;27;20487;-76
2021/03/19 04:31:05;;;;;;;30.90;28.40;;;2.80;99.90;;;;;;5135476;27;20698;-75
2021/03/19 04:33:33;;;;;;;29.40;26.90;;;2.80;99.90;;;;;;5135927;27;20877;-75
2021/03/19 04:36:16;;;;;;;30.47;28.00;;;2.70;99.90;;;;;;5135860;27;20471;-75
2021/03/19 04:38:43;;;;;;;28.37;26.10;;;2.70;99.90;;;;;;5135595;27;20449;-75
2021/03/19 04:41:10;;;;;;;30.97;28.53;;;2.60;99.90;;;;;;5135691;27;20461;-75
2021/03/19 04:43:36;;;;;;;29.93;27.50;;;2.60;99.90;;;;;;5135608;27;20873;-75
2021/03/19 04:46:03;;;;;;;30.97;28.33;;;2.60;99.90;;;;;;5135518;27;20932;-75
2021/03/19 04:48:30;;;;;;;29.50;27.10;;;2.70;99.90;;;;;;5135254;27;20986;-74
2021/03/19 04:50:57;;;;;;;30.33;27.43;;;2.70;99.90;;;;;;5135462;27;20468;-76
2021/03/19 04:53:23;;;;;;;29.67;27.33;;;2.70;99.90;;;;;;5135437;27;20451;-76
2021/03/19 04:55:49;;;;;;;31.73;28.93;;;2.70;99.90;;;;;;5135286;27;20446;-76
2021/03/19 04:58:15;;;;;;;30.53;28.13;;;2.70;99.90;;;;;;5135432;27;20444;-76
2021/03/19 05:00:41;;;;;;;32.57;29.57;;;2.80;99.90;;;;;;5135399;27;20444;-73
2021/03/19 05:03:08;;;;;;;30.97;28.33;;;2.90;99.90;;;;;;5135231;27;20453;-76
2021/03/19 05:05:34;;;;;;;33.23;30.63;;;2.80;99.90;;;;;;5134883;27;20448;-76
2021/03/19 05:08:03;;;;;;;33.13;29.83;;;2.80;99.90;;;;;;5135209;27;20520;-74
2021/03/19 05:10:32;;;;;;;31.33;28.73;;;2.80;99.90;;;;;;5134987;27;20493;-74
2021/03/19 05:12:59;;;;;;;32.67;29.83;;;2.90;99.90;;;;;;5134936;27;20519;-74
2021/03/19 05:15:27;;;;;;;34.43;31.53;;;2.80;99.90;;;;;;5134951;27;20452;-74
2021/03/19 05:17:54;;;;;;;32.00;29.37;;;2.80;99.90;;;;;;5135011;27;20996;-75
2021/03/19 05:20:21;;;;;;;33.93;30.83;;;2.80;99.90;;;;;;5134735;27;20826;-76
2021/03/19 05:22:47;;;;;;;33.57;30.53;;;2.80;99.90;;;;;;5135207;27;20444;-76
2021/03/19 05:25:17;;;;;;;33.10;30.40;;;2.80;99.90;;;;;;5134923;27;20449;-75
2021/03/19 05:27:44;;;;;;;32.10;29.50;;;2.80;99.90;;;;;;5134405;27;20506;-75
2021/03/19 05:30:14;;;;;;;35.77;32.77;;;2.90;99.90;;;;;;5135011;27;20501;-75
2021/03/19 05:32:40;;;;;;;31.40;28.40;;;2.80;99.90;;;;;;5134839;27;20440;-74
2021/03/19 05:35:08;;;;;;;32.57;29.67;;;2.90;99.90;;;;;;5134239;27;20515;-74
2021/03/19 05:37:34;;;;;;;31.23;28.27;;;2.90;99.90;;;;;;5134344;27;21001;-74
2021/03/19 05:40:01;;;;;;;32.80;29.70;;;3.00;99.90;;;;;;5134308;27;20516;-74
2021/03/19 05:42:31;;;;;;;31.53;28.97;;;2.90;99.90;;;;;;5134381;27;21142;-73
2021/03/19 05:45:01;;;;;;;30.50;28.10;;;2.90;99.90;;;;;;5134153;27;20519;-74
2021/03/19 05:47:29;;;;;;;32.37;29.67;;;3.00;99.90;;;;;;5134603;27;20443;-75
2021/03/19 05:49:58;;;;;;;31.10;28.50;;;3.10;99.90;;;;;;5134158;27;20956;-74
2021/03/19 05:52:28;;;;;;;32.53;29.83;;;3.10;99.90;;;;;;5134688;27;20444;-73
2021/03/19 05:54:56;;;;;;;31.93;29.13;;;3.00;99.90;;;;;;5134028;27;20451;-74
2021/03/19 05:57:26;;;;;;;30.33;27.43;;;3.10;99.90;;;;;;5134022;27;20449;-73
2021/03/19 05:59:55;;;;;;;30.30;27.70;;;3.30;99.90;;;;;;5134000;27;20477;-74
2021/03/19 06:02:25;;;;;;;32.87;29.87;;;3.40;99.90;;;;;;5134132;27;20448;-74
2021/03/19 06:05:05;;;;;;;32.73;29.70;;;3.40;99.90;;;;;;5133968;27;20456;-73
2021/03/19 06:07:44;;;;;;;30.17;27.43;;;3.40;99.90;;;;;;5134198;27;20448;-75
2021/03/19 06:10:21;;;;;;;29.53;26.83;;;3.50;99.90;;;;;;5133530;27;20948;-75
2021/03/19 06:12:49;;;;;;;30.90;28.13;;;3.60;99.90;;;;;;5133745;27;20826;-74
2021/03/19 06:15:33;;;;;;;33.23;30.10;;;3.60;99.90;;;;;;5133914;27;20453;-74
2021/03/19 06:18:01;;;;;;;29.53;27.27;;;3.70;99.90;;;;;;5133861;27;20990;-74
2021/03/19 06:20:28;;;;;;;30.30;27.80;;;3.80;99.90;;;;;;5133788;27;20449;-74
2021/03/19 06:23:02;;;;;;;29.27;26.77;;;4.00;99.90;;;;;;5133527;27;20441;-74
2021/03/19 06:25:34;;;;;;;30.87;27.87;;;4.10;99.90;;;;;;5133500;27;20450;-74
2021/03/19 06:28:04;;;;;;;30.90;28.53;;;4.10;99.90;;;;;;5133601;27;20851;-73
2021/03/19 06:30:33;;;;;;;30.17;27.80;;;4.10;99.90;;;;;;5133685;27;20441;-73
2021/03/19 06:33:23;;;;;;;31.50;28.90;;;4.00;99.90;;;;;;5132975;27;20451;-73
2021/03/19 06:36:09;;;;;;;30.00;27.47;;;4.00;99.90;;;;;;5133213;27;20440;-72
2021/03/19 06:38:37;;;;;;;32.23;29.73;;;3.90;99.90;;;;;;5133266;27;21021;-72
2021/03/19 06:41:29;;;;;;;33.97;30.57;;;3.90;99.90;;;;;;5132506;27;20448;-71
2021/03/19 06:44:12;;;;;;;34.27;31.57;;;4.00;99.90;;;;;;5133122;27;21008;-71
2021/03/19 06:46:45;;;;;;;35.10;32.30;;;3.90;99.90;;;;;;5132958;27;20451;-69
2021/03/19 06:49:12;;;;;;;36.57;33.33;;;3.80;99.90;;;;;;5133024;27;20481;-71
2021/03/19 06:51:41;;;;;;;34.70;31.80;;;3.80;99.90;;;;;;5132948;27;20566;-68
2021/03/19 06:54:10;;;;;;;36.00;32.77;;;3.80;99.90;;;;;;5132904;27;20516;-71
2021/03/19 06:56:40;;;;;;;36.73;33.10;;;3.70;99.90;;;;;;5132818;27;20434;-71
2021/03/19 06:59:20;;;;;;;39.73;36.30;;;3.60;99.90;;;;;;5132678;27;20682;-72
2021/03/19 07:01:48;;;;;;;36.40;33.10;;;3.70;99.90;;;;;;5133296;27;21022;-72
2021/03/19 07:04:38;;;;;;;36.03;33.00;;;3.60;99.90;;;;;;5133046;27;20937;-72
2021/03/19 07:07:47;;;;;;;37.17;33.90;;;3.60;99.90;;;;;;5133279;27;20449;-71
2021/03/19 07:10:26;;;;;;;38.03;34.77;;;3.60;99.90;;;;;;5123420;27;20852;-73
2021/03/19 07:13:00;;;;;;;37.57;34.17;;;3.60;99.90;;;;;;5132643;27;20806;-73
2021/03/19 07:15:36;;;;;;;41.33;37.23;;;3.70;99.90;;;;;;5132679;27;20813;-72
2021/03/19 07:18:08;;;;;;;40.40;36.50;;;3.90;99.90;;;;;;5132653;27;20832;-73
2021/03/19 07:20:48;;;;;;;39.20;35.87;;;4.00;99.90;;;;;;5115512;27;20916;-72
2021/03/19 07:23:16;;;;;;;39.37;35.77;;;4.20;99.90;;;;;;5111886;28;20462;-73
2021/03/19 07:25:53;;;;;;;42.30;38.80;;;4.20;99.90;;;;;;5111723;28;20459;-73
2021/03/19 07:28:31;;;;;;;38.17;35.07;;;4.30;99.90;;;;;;5111344;28;20490;-72
2021/03/19 07:31:13;;;;;;;40.47;36.97;;;4.40;99.90;;;;;;5111586;28;20451;-72
2021/03/19 07:34:02;;;;;;;39.40;35.80;;;4.40;99.90;;;;;;5111750;28;20452;-72
2021/03/19 07:36:36;;;;;;;38.37;34.80;;;4.50;99.90;;;;;;5111669;28;20465;-73
2021/03/19 07:39:22;;;;;;;37.50;33.97;;;4.40;99.90;;;;;;5111603;28;20439;-72
2021/03/19 07:42:05;;;;;;;38.60;35.10;;;4.30;99.90;;;;;;5111581;28;20441;-72
2021/03/19 07:44:37;;;;;;;35.23;32.03;;;4.20;99.90;;;;;;5111804;28;20463;-73
2021/03/19 07:47:21;;;;;;;36.30;33.40;;;4.20;99.90;;;;;;5111451;28;20818;-72
2021/03/19 07:50:00;;;;;;;37.67;34.47;;;4.50;99.90;;;;;;5111207;28;20486;-73
2021/03/19 07:52:39;;;;;;;39.10;35.73;;;4.70;99.90;;;;;;5126868;27;20494;-71
2021/03/19 07:55:14;;;;;;;37.93;34.47;;;4.90;99.90;;;;;;5129799;27;20939;-73
2021/03/19 07:57:44;;;;;;;39.17;35.40;;;5.20;99.90;;;;;;5129426;27;20446;-72
2021/03/19 08:00:17;;;;;;;38.97;35.53;;;5.30;99.90;;;;;;5131756;27;20932;-73
2021/03/19 08:02:49;;;;;;;38.43;35.10;;;5.50;99.90;;;;;;5131541;27;20444;-72
2021/03/19 08:05:25;;;;;;;39.10;35.63;;;5.60;99.90;;;;;;5131519;27;20442;-72
2021/03/19 08:08:15;;;;;;;39.70;36.43;;;5.60;99.90;;;;;;5131537;27;20448;-72
2021/03/19 08:10:55;;;;;;;39.00;35.80;;;5.50;99.90;;;;;;5131485;27;20507;-72
2021/03/19 08:13:47;;;;;;;40.43;36.90;;;5.40;99.90;;;;;;5131635;27;20485;-72
2021/03/19 08:16:19;;;;;;;38.73;35.63;;;5.50;99.90;;;;;;5114428;27;20457;-72
2021/03/19 08:18:54;;;;;;;36.93;33.93;;;5.60;99.90;;;;;;5131429;27;20475;-72
2021/03/19 08:21:25;;;;;;;37.50;34.40;;;5.60;99.90;;;;;;5131609;28;20806;-72
2021/03/19 08:24:04;;;;;;;37.93;34.80;;;5.80;99.90;;;;;;5131447;27;20442;-72
2021/03/19 08:26:47;;;;;;;36.57;33.90;;;5.80;99.90;;;;;;5131377;27;20456;-72
2021/03/19 08:29:25;;;;;;;42.50;38.77;;;5.60;99.90;;;;;;5131740;28;20484;-72
2021/03/19 08:31:59;;;;;;;41.13;37.77;;;5.40;99.90;;;;;;5131253;27;20444;-72
2021/03/19 08:34:39;;;;;;;42.60;39.10;;;5.30;99.90;;;;;;5131381;28;20438;-72
2021/03/19 08:37:24;;;;;;;41.60;38.37;;;5.40;99.90;;;;;;5131405;27;20496;-72
2021/03/19 08:39:50;;;;;;;42.43;38.93;;;5.20;99.90;;;;;;5131274;27;20860;-72
2021/03/19 08:42:20;;;;;;;44.77;40.97;;;5.20;99.90;;;;;;5131269;28;20447;-72
2021/03/19 08:44:47;;;;;;;43.77;40.27;;;5.20;99.90;;;;;;5131004;27;20450;-72
2021/03/19 08:47:22;;;;;;;41.83;38.63;;;5.40;99.90;;;;;;5131257;27;20458;-73
2021/03/19 08:49:53;;;;;;;43.60;40.20;;;5.50;99.90;;;;;;5131008;27;20485;-72
2021/03/19 08:52:35;;;;;;;41.90;38.37;;;5.30;99.90;;;;;;5131135;28;20446;-73
2021/03/19 08:55:24;;;;;;;43.27;39.90;;;5.40;99.90;;;;;;5131144;28;20451;-72
2021/03/19 08:57:53;;;;;;;43.30;39.83;;;5.70;99.90;;;;;;5130847;28;20497;-72
2021/03/19 09:00:53;;;;;;;37.70;34.90;;;5.80;99.90;;;;;;5131139;28;20520;-72
2021/03/19 09:03:52;;;;;;;38.47;35.67;;;5.60;99.90;;;;;;5132552;27;20466;-72
2021/03/19 09:06:22;;;;;;;37.70;34.83;;;5.60;99.90;;;;;;5134968;27;20442;-73
2021/03/19 09:09:18;;;;;;;38.90;35.80;;;5.60;99.90;;;;;;5134627;27;20548;-73
2021/03/19 09:12:07;;;;;;;37.03;34.10;;;5.90;99.90;;;;;;5134938;27;20447;-73
2021/03/19 09:14:39;;;;;;;36.43;33.57;;;6.10;99.90;;;;;;5134813;27;20446;-73
2021/03/19 09:17:07;;;;;;;37.37;34.77;;;5.80;99.90;;;;;;5134578;27;20451;-72
2021/03/19 09:20:02;;;;;;;36.13;33.47;;;5.80;99.90;;;;;;5134435;27;20444;-71
2021/03/19 09:22:47;;;;;;;36.43;33.83;;;5.60;99.90;;;;;;5075438;27;20458;-72
2021/03/19 09:25:46;;;;;;;36.63;33.93;;;5.40;99.90;;;;;;5134628;27;21364;-72
2021/03/19 09:28:33;;;;;;;35.00;32.17;;;5.20;99.90;;;;;;5134572;27;20480;-72
2021/03/19 09:31:03;;;;;;;37.50;34.80;;;5.10;99.90;;;;;;5134097;27;20458;-72
2021/03/19 09:34:08;;;;;;;37.40;34.40;;;5.00;99.90;;;;;;5134297;27;20942;-72
2021/03/19 09:37:25;;;;;;;38.30;34.90;;;4.90;99.90;;;;;;5134481;27;20477;-71
2021/03/19 09:40:14;;;;;;;37.13;33.83;;;5.10;99.90;;;;;;5132696;27;20959;-72
2021/03/19 09:43:09;;;;;;;34.83;32.33;;;5.40;99.90;;;;;;5134039;27;20445;-72
2021/03/19 09:45:47;;;;;;;31.27;29.00;;;5.60;99.90;;;;;;5075210;27;20586;-72
2021/03/19 09:48:28;;;;;;;30.07;27.80;;;5.60;99.90;;;;;;5134007;27;20488;-72
2021/03/19 09:50:58;;;;;;;28.60;26.30;;;5.50;99.90;;;;;;5133867;27;20447;-71
2021/03/19 09:53:31;;;;;;;26.30;24.30;;;5.40;99.90;;;;;;5134086;27;20460;-72
2021/03/19 09:55:59;;;;;;;25.60;23.70;;;5.50;99.90;;;;;;5134310;27;20451;-72
2021/03/19 09:58:36;;;;;;;23.97;22.17;;;5.80;99.90;;;;;;5133782;27;20440;-72
2021/03/19 10:01:09;;;;;;;24.90;22.90;;;6.00;99.90;;;;;;5133913;27;20529;-72
2021/03/19 10:03:45;;;;;;;23.63;22.03;;;5.90;99.90;;;;;;5133627;27;20448;-72
2021/03/19 10:06:26;;;;;;;25.23;23.13;;;6.20;99.90;;;;;;5133752;27;20449;-72
2021/03/19 10:09:07;;;;;;;23.17;21.47;;;6.80;99.90;;;;;;5133630;27;20471;-71
2021/03/19 10:11:33;;;;;;;23.80;22.10;;;6.60;99.90;;;;;;5133445;27;20436;-72
2021/03/19 10:14:14;;;;;;;23.03;21.50;;;6.70;99.90;;;;;;5133270;27;21023;-72
2021/03/19 10:16:41;;;;;;;21.47;20.03;;;6.80;99.90;;;;;;5133247;27;20475;-71
2021/03/19 10:19:13;;;;;;;22.70;20.90;;;7.10;99.90;;;;;;5133193;27;20479;-71
2021/03/19 10:21:42;;;;;;;22.20;20.70;;;7.20;99.90;;;;;;5133006;27;20448;-70
2021/03/19 10:24:09;;;;;;;22.30;20.60;;;7.70;99.90;;;;;;5133360;27;20501;-71
2021/03/19 10:26:38;;;;;;;20.33;19.13;;;8.30;99.90;;;;;;5133209;27;20436;-72
2021/03/19 10:29:11;;;;;;;21.40;20.00;;;8.70;99.90;;;;;;5133107;27;20571;-72
2021/03/19 10:31:45;;;;;;;20.80;19.50;;;8.50;99.90;;;;;;5133022;27;20452;-71
2021/03/19 10:34:21;;;;;;;21.00;19.50;;;8.30;99.90;;;;;;5133471;27;20446;-71
2021/03/19 10:36:52;;;;;;;17.87;16.67;;;8.30;99.90;;;;;;5132664;27;20467;-72
2021/03/19 10:39:28;;;;;;;19.93;18.37;;;8.00;99.90;;;;;;5133169;27;20480;-72
2021/03/19 10:42:07;;;;;;;20.83;19.33;;;7.50;99.90;;;;;;5132948;27;20443;-72
2021/03/19 10:44:41;;;;;;;17.30;16.20;;;7.60;99.90;;;;;;5133047;27;20440;-72
2021/03/19 10:47:17;;;;;;;19.67;18.27;;;7.50;99.90;;;;;;5132945;27;20997;-73
2021/03/19 10:49:49;;;;;;;19.30;18.00;;;7.30;99.90;;;;;;5132586;27;20476;-72
2021/03/19 10:52:21;;;;;;;20.30;19.00;;;7.30;99.90;;;;;;5132824;27;20945;-71
2021/03/19 10:54:50;;;;;;;19.43;18.17;;;7.20;99.90;;;;;;5132656;27;20440;-71
2021/03/19 10:57:23;;;;;;;20.40;19.00;;;7.00;99.90;;;;;;5132461;27;20448;-72
2021/03/19 10:59:52;;;;;;;20.20;18.70;;;6.70;99.90;;;;;;5132666;27;20449;-71
2021/03/19 11:02:21;;;;;;;20.07;18.67;;;6.40;99.90;;;;;;5132371;27;20452;-74
2021/03/19 11:05:07;;;;;;;18.83;17.60;;;6.00;99.90;;;;;;5132531;27;20455;-72
2021/03/19 11:07:36;;;;;;;20.73;19.43;;;5.60;99.90;;;;;;5132125;27;20970;-74
2021/03/19 11:10:23;;;;;;;17.93;16.60;;;5.60;99.90;;;;;;5132396;27;20483;-72
2021/03/19 11:12:51;;;;;;;17.63;16.63;;;5.60;99.90;;;;;;5132629;27;20540;-72
2021/03/19 11:15:21;;;;;;;17.73;16.63;;;5.40;99.90;;;;;;5132292;27;20449;-74
2021/03/19 11:18:12;;;;;;;16.37;15.47;;;5.30;99.90;;;;;;5132147;27;20909;-75
2021/03/19 11:20:39;;;;;;;16.63;15.53;;;5.30;99.90;;;;;;5131917;27;20460;-75
2021/03/19 11:23:18;;;;;;;14.50;13.70;;;5.60;99.90;;;;;;5132258;27;20452;-75
2021/03/19 11:25:46;;;;;;;14.30;13.40;;;5.90;99.90;;;;;;5132038;27;21049;-74
2021/03/19 11:28:25;;;;;;;14.70;13.80;;;5.90;99.90;;;;;;5132247;27;20447;-74
2021/03/19 11:30:52;;;;;;;13.10;12.50;;;5.60;99.90;;;;;;5132100;27;20449;-73
2021/03/19 11:33:20;;;;;;;14.07;13.17;;;5.30;99.90;;;;;;5132066;27;20508;-72
2021/03/19 11:36:05;;;;;;;14.60;13.60;;;5.30;99.90;;;;;;5131969;27;20459;-71
2021/03/19 11:38:32;;;;;;;12.70;12.10;;;5.60;99.90;;;;;;5132139;27;20447;-73
2021/03/19 11:41:00;;;;;;;13.60;12.90;;;5.50;99.90;;;;;;5132023;27;20937;-71
2021/03/19 11:43:26;;;;;;;13.80;12.90;;;5.50;99.90;;;;;;5132134;27;20440;-72
2021/03/19 11:45:53;;;;;;;13.50;12.70;;;5.40;99.90;;;;;;5131833;27;20526;-71
2021/03/19 11:48:27;;;;;;;13.63;12.73;;;5.70;99.90;;;;;;5131802;27;20608;-70
2021/03/19 11:51:06;;;;;;;15.17;14.20;;;5.80;99.90;;;;;;5131763;27;20448;-71
2021/03/19 11:53:32;;;;;;;14.17;13.20;;;5.80;99.90;;;;;;5131488;27;20502;-70
2021/03/19 11:55:59;;;;;;;15.43;14.43;;;5.80;99.90;;;;;;5131886;27;20446;-70
2021/03/19 11:58:29;;;;;;;16.87;15.63;;;5.70;99.90;;;;;;5132050;27;20446;-71
2021/03/19 12:00:55;;;;;;;13.47;12.60;;;5.70;99.90;;;;;;5131847;27;20451;-71
2021/03/19 12:03:30;;;;;;;15.87;14.87;;;5.70;99.90;;;;;;5131611;27;20794;-71
2021/03/19 12:05:57;;;;;;;16.03;15.00;;;5.70;99.90;;;;;;5131754;28;20429;-71
2021/03/19 12:08:24;;;;;;;17.93;16.80;;;5.80;99.90;;;;;;5131225;27;21104;-71
2021/03/19 12:10:50;;;;;;;15.33;14.23;;;5.60;99.90;;;;;;5131365;28;20562;-71
2021/03/19 12:13:17;;;;;;;15.77;14.57;;;5.60;99.90;;;;;;5131418;28;20502;-71
2021/03/19 12:15:45;;;;;;;15.87;14.60;;;5.40;99.90;;;;;;5131338;27;20463;-71
2021/03/19 12:18:13;;;;;;;16.60;15.40;;;5.30;99.90;;;;;;5131388;27;20943;-71
2021/03/19 12:20:40;;;;;;;16.73;15.40;;;5.10;99.90;;;;;;5131232;27;20444;-71
2021/03/19 12:23:06;;;;;;;16.97;15.50;;;5.20;99.90;;;;;;5131002;27;20452;-71
2021/03/19 12:25:36;;;;;;;18.13;16.80;;;5.20;99.90;;;;;;5131268;27;20968;-71
2021/03/19 12:28:03;;;;;;;18.37;17.10;;;5.10;99.90;;;;;;5131418;27;20455;-72
2021/03/19 12:30:29;;;;;;;19.13;17.50;;;5.10;99.90;;;;;;5131333;27;20930;-72
2021/03/19 12:32:56;;;;;;;18.57;17.07;;;5.00;99.90;;;;;;5131414;28;20449;-72
2021/03/19 12:35:24;;;;;;;17.87;16.37;;;5.00;99.90;;;;;;5131575;28;20458;-72
2021/03/19 12:37:52;;;;;;;17.37;15.97;;;5.10;99.90;;;;;;5131893;27;20473;-72
2021/03/19 12:40:19;;;;;;;18.53;16.87;;;5.10;99.90;;;;;;5135286;27;20950;-73
2021/03/19 12:42:46;;;;;;;18.10;16.57;;;5.10;99.90;;;;;;5135311;27;20458;-72
2021/03/19 12:45:13;;;;;;;17.90;16.37;;;5.30;99.90;;;;;;5135338;27;20479;-71
2021/03/19 12:47:39;;;;;;;18.40;16.90;;;5.30;99.90;;;;;;5135446;27;20458;-71
2021/03/19 12:50:06;;;;;;;19.73;18.00;;;5.30;99.90;;;;;;5135267;27;20480;-71
2021/03/19 12:52:33;;;;;;;18.43;16.87;;;5.30;99.90;;;;;;5134808;27;20451;-71
2021/03/19 12:55:00;;;;;;;18.30;16.83;;;5.20;99.90;;;;;;5135477;27;20447;-71
2021/03/19 12:57:26;;;;;;;19.63;17.87;;;5.20;99.90;;;;;;5134932;27;20451;-70
2021/03/19 12:59:52;;;;;;;20.03;18.17;;;5.00;99.90;;;;;;5135233;27;20441;-71
2021/03/19 13:02:18;;;;;;;18.67;16.87;;;5.00;99.90;;;;;;5134888;27;20444;-70
2021/03/19 13:04:44;;;;;;;21.43;19.47;;;5.10;99.90;;;;;;5135180;27;20471;-71
2021/03/19 13:07:11;;;;;;;21.20;19.10;;;5.20;99.90;;;;;;5134834;27;20450;-71